createdAt,value
2018-09-14T00:05:58.000Z,1014.12
2018-09-14T00:15:58.000Z,1014.054
2018-09-14T00:25:58.000Z,1013.953
2018-09-14T00:35:58.000Z,1013.917
2018-09-14T00:45:58.000Z,1013.891
2018-09-14T00:55:58.000Z,1013.856
2018-09-14T01:05:58.000Z,1013.834
2018-09-14T01:15:58.000Z,1013.845
2018-09-14T01:25:58.000Z,1013.797
2018-09-14T01:35:58.000Z,1013.739
2018-09-14T01:45:58.000Z,1013.742
2018-09-14T01:55:58.000Z,1013.752
2018-09-14T02:05:58.000Z,1013.708
2018-09-14T02:15:58.000Z,1013.64
2018-09-14T02:25:58.000Z,1013.54
2018-09-14T02:35:58.000Z,1013.494
2018-09-14T02:45:58.000Z,1013.39
2018-09-14T02:55:58.000Z,1013.421
2018-09-14T03:05:58.000Z,1013.403
2018-09-14T03:15:58.000Z,1013.324
2018-09-14T03:25:58.000Z,1013.309
2018-09-14T03:35:58.000Z,1013.385
2018-09-14T03:45:58.000Z,1013.348
2018-09-14T03:55:58.000Z,1013.394
2018-09-14T04:05:58.000Z,1013.388
2018-09-14T04:15:58.000Z,1013.444
2018-09-14T04:25:58.000Z,1013.42
2018-09-14T04:35:58.000Z,1013.417
2018-09-14T04:45:58.000Z,1013.406
2018-09-14T04:55:58.000Z,1013.498
2018-09-14T05:05:58.000Z,1013.498
2018-09-14T05:15:58.000Z,1013.48
2018-09-14T05:25:58.000Z,1013.486
2018-09-14T05:35:58.000Z,1013.516
2018-09-14T05:45:58.000Z,1013.641
2018-09-14T05:55:58.000Z,1013.674
2018-09-14T06:05:59.000Z,1013.79
2018-09-14T06:15:58.000Z,1013.8
2018-09-14T06:25:58.000Z,1013.83
2018-09-14T06:35:59.000Z,1013.842
2018-09-14T06:45:59.000Z,1013.793
2018-09-14T06:55:59.000Z,1013.782
2018-09-14T07:05:59.000Z,1013.721
2018-09-14T07:15:59.000Z,1013.76
2018-09-14T07:25:59.000Z,1013.729
2018-09-14T07:35:59.000Z,1013.774
2018-09-14T07:45:59.000Z,1013.786
2018-09-14T07:55:59.000Z,1013.78
2018-09-14T08:05:59.000Z,1013.818
2018-09-14T08:15:59.000Z,1013.86
2018-09-14T08:25:59.000Z,1013.914
2018-09-14T08:35:59.000Z,1014
2018-09-14T08:45:59.000Z,1014.121
2018-09-14T08:55:59.000Z,1014.118
2018-09-14T09:05:59.000Z,1014.073
2018-09-14T09:15:59.000Z,1014.096
2018-09-14T09:26:02.000Z,1014.069
2018-09-14T09:35:59.000Z,1014.15
2018-09-14T09:46:03.000Z,1014.097
2018-09-14T09:55:59.000Z,1014.048
2018-09-14T10:05:59.000Z,1013.969
2018-09-14T10:15:59.000Z,1013.954
2018-09-14T10:25:59.000Z,1013.825
2018-09-14T10:35:59.000Z,1013.734
2018-09-14T10:45:59.000Z,1013.617
2018-09-14T10:55:59.000Z,1013.609
2018-09-14T11:05:59.000Z,1013.513
2018-09-14T11:15:59.000Z,1013.365
2018-09-14T11:26:03.000Z,1013.285
2018-09-14T11:35:59.000Z,1013.109
2018-09-14T11:45:59.000Z,1013.121
2018-09-14T11:55:59.000Z,1013.007
2018-09-14T12:05:59.000Z,1012.839
2018-09-14T12:15:59.000Z,1012.705
2018-09-14T12:25:59.000Z,1012.506
2018-09-14T12:35:59.000Z,1012.375
2018-09-14T12:45:59.000Z,1012.384
2018-09-14T12:55:59.000Z,1012.31
2018-09-14T13:05:59.000Z,1012.36
2018-09-14T13:15:59.000Z,1012.194
2018-09-14T13:25:59.000Z,1012.212
2018-09-14T13:35:59.000Z,1012.012
2018-09-14T13:45:59.000Z,1012.08
2018-09-14T13:55:59.000Z,1012.037
2018-09-14T14:05:59.000Z,1011.959
2018-09-14T14:15:59.000Z,1011.906
2018-09-14T14:26:00.000Z,1011.858
2018-09-14T14:35:59.000Z,1011.781
2018-09-14T14:45:59.000Z,1011.633
2018-09-14T14:56:00.000Z,1011.594
2018-09-14T15:06:00.000Z,1011.608
2018-09-14T15:16:00.000Z,1011.552
2018-09-14T15:26:00.000Z,1011.573
2018-09-14T15:36:00.000Z,1011.631
2018-09-14T15:46:01.000Z,1011.577
2018-09-14T15:56:00.000Z,1011.564
2018-09-14T16:06:00.000Z,1011.559
2018-09-14T16:16:00.000Z,1011.557
2018-09-14T16:26:00.000Z,1011.524
2018-09-14T16:36:00.000Z,1011.599
2018-09-14T16:46:00.000Z,1011.666
2018-09-14T16:56:00.000Z,1011.656
2018-09-14T17:06:00.000Z,1011.662
2018-09-14T17:16:00.000Z,1011.637
2018-09-14T17:26:00.000Z,1011.668
2018-09-14T17:36:00.000Z,1011.801
2018-09-14T17:46:00.000Z,1011.801
2018-09-14T17:56:01.000Z,1011.83
2018-09-14T18:06:00.000Z,1011.89
2018-09-14T18:16:00.000Z,1011.965
2018-09-14T18:26:00.000Z,1012.041
2018-09-14T18:36:00.000Z,1012.092
2018-09-14T18:46:02.000Z,1012.073
2018-09-14T18:56:00.000Z,1012.158
2018-09-14T19:06:02.000Z,1012.245
2018-09-14T19:16:00.000Z,1012.246
2018-09-14T19:26:00.000Z,1012.372
2018-09-14T19:36:00.000Z,1012.452
2018-09-14T19:46:00.000Z,1012.386
2018-09-14T19:56:00.000Z,1012.369
2018-09-14T20:06:00.000Z,1012.275
2018-09-14T20:16:00.000Z,1012.308
2018-09-14T20:26:00.000Z,1012.451
2018-09-14T20:36:00.000Z,1012.444
2018-09-14T20:46:00.000Z,1012.434
2018-09-14T20:56:00.000Z,1012.44
2018-09-14T21:06:00.000Z,1012.462
2018-09-14T21:16:00.000Z,1012.55
2018-09-14T21:26:00.000Z,1012.645
2018-09-14T21:36:00.000Z,1012.754
2018-09-14T21:46:00.000Z,1012.773
2018-09-14T21:56:01.000Z,1012.677
2018-09-14T22:06:00.000Z,1012.804
2018-09-14T22:16:00.000Z,1012.9
2018-09-14T22:26:00.000Z,1012.9
2018-09-14T22:36:00.000Z,1012.83
2018-09-14T22:46:01.000Z,1012.864
2018-09-14T22:56:00.000Z,1012.915
2018-09-14T23:06:00.000Z,1013.049
2018-09-14T23:16:00.000Z,1013.06
2018-09-14T23:26:01.000Z,1013.053
2018-09-14T23:36:01.000Z,1013.11
2018-09-14T23:46:01.000Z,1013.096
2018-09-14T23:56:01.000Z,1013.048
